createdAt,value
2018-12-04T00:01:27.308Z,10.33
2018-12-04T00:03:54.723Z,9.03
2018-12-04T00:06:22.100Z,10.33
2018-12-04T00:08:49.524Z,7.67
2018-12-04T00:11:16.896Z,14.50
2018-12-04T00:13:44.313Z,12.03
2018-12-04T00:16:11.692Z,10.13
2018-12-04T00:18:39.086Z,9.50
2018-12-04T00:21:06.479Z,11.53
2018-12-04T00:23:33.864Z,8.60
2018-12-04T00:26:01.238Z,11.40
2018-12-04T00:28:28.611Z,8.63
2018-12-04T00:30:56.021Z,9.33
2018-12-04T00:33:23.383Z,7.80
2018-12-04T00:35:50.784Z,6.53
2018-12-04T00:38:18.159Z,4.80
2018-12-04T00:40:45.561Z,5.43
2018-12-04T00:43:12.944Z,6.00
2018-12-04T00:45:40.343Z,8.97
2018-12-04T00:48:07.764Z,5.33
2018-12-04T00:50:35.168Z,9.17
2018-12-04T00:53:02.525Z,8.73
2018-12-04T00:55:44.636Z,6.40
2018-12-04T00:58:12.022Z,7.83
2018-12-04T01:00:39.434Z,7.90
2018-12-04T01:03:06.977Z,3.37
2018-12-04T01:05:34.393Z,12.10
2018-12-04T01:08:01.780Z,8.80
2018-12-04T01:10:29.389Z,6.13
2018-12-04T01:12:56.793Z,7.47
2018-12-04T01:15:24.257Z,7.17
2018-12-04T01:17:51.653Z,9.23
2018-12-04T01:20:19.069Z,8.77
2018-12-04T01:22:46.465Z,7.00
2018-12-04T01:25:13.872Z,7.17
2018-12-04T01:27:41.311Z,4.37
2018-12-04T01:30:08.936Z,6.00
2018-12-04T01:32:36.331Z,5.50
2018-12-04T01:35:04.100Z,3.87
2018-12-04T01:37:31.501Z,5.73
2018-12-04T01:39:58.944Z,6.67
2018-12-04T01:42:26.352Z,6.83
2018-12-04T01:44:53.764Z,5.90
2018-12-04T01:47:21.163Z,4.37
2018-12-04T01:49:48.568Z,6.00
2018-12-04T01:52:15.973Z,6.60
2018-12-04T01:54:43.375Z,4.67
2018-12-04T01:57:10.770Z,5.53
2018-12-04T01:59:38.176Z,4.00
2018-12-04T02:02:05.572Z,7.60
2018-12-04T02:04:32.993Z,6.57
2018-12-04T02:07:00.376Z,5.23
2018-12-04T02:09:27.773Z,3.70
2018-12-04T02:11:55.307Z,4.50
2018-12-04T02:14:22.693Z,5.97
2018-12-04T02:16:50.216Z,8.10
2018-12-04T02:19:17.621Z,7.73
2018-12-04T02:21:45.035Z,5.27
2018-12-04T02:24:12.428Z,4.70
2018-12-04T02:26:39.840Z,8.47
2018-12-04T02:29:07.256Z,6.40
2018-12-04T02:31:34.666Z,6.13
2018-12-04T02:34:02.172Z,8.43
2018-12-04T02:36:29.567Z,10.70
2018-12-04T02:38:56.962Z,12.20
2018-12-04T02:41:24.379Z,7.23
2018-12-04T02:43:51.751Z,8.37
2018-12-04T02:46:19.151Z,6.53
2018-12-04T02:48:46.564Z,5.57
2018-12-04T02:51:13.970Z,5.90
2018-12-04T02:53:41.340Z,6.83
2018-12-04T02:56:08.740Z,9.10
2018-12-04T02:58:36.128Z,5.83
2018-12-04T03:01:03.533Z,5.57
2018-12-04T03:03:30.912Z,4.30
2018-12-04T03:05:58.313Z,7.20
2018-12-04T03:08:25.690Z,4.30
2018-12-04T03:10:53.092Z,7.50
2018-12-04T03:13:20.470Z,3.13
2018-12-04T03:15:47.870Z,5.13
2018-12-04T03:18:15.248Z,6.87
2018-12-04T03:20:42.652Z,2.77
2018-12-04T03:23:10.097Z,2.40
2018-12-04T03:25:37.497Z,7.80
2018-12-04T03:28:04.877Z,5.73
2018-12-04T03:30:32.529Z,5.60
2018-12-04T03:32:59.990Z,3.50
2018-12-04T03:35:27.428Z,4.30
2018-12-04T03:37:54.820Z,6.33
2018-12-04T03:40:22.230Z,6.63
2018-12-04T03:42:49.629Z,6.20
2018-12-04T03:45:17.017Z,8.77
2018-12-04T03:47:44.416Z,3.87
2018-12-04T03:50:12.220Z,4.03
2018-12-04T03:52:39.626Z,7.77
2018-12-04T03:55:07.153Z,5.77
2018-12-04T03:57:34.562Z,7.07
2018-12-04T04:00:02.464Z,6.23
2018-12-04T04:02:29.848Z,5.60
2018-12-04T04:04:57.237Z,7.47
2018-12-04T04:07:24.624Z,3.47
2018-12-04T04:09:52.033Z,3.93
2018-12-04T04:12:19.426Z,4.80
2018-12-04T04:14:46.857Z,3.40
2018-12-04T04:17:14.246Z,2.90
2018-12-04T04:19:41.631Z,4.27
2018-12-04T04:22:09.025Z,5.53
2018-12-04T04:24:36.427Z,5.80
2018-12-04T04:27:03.940Z,5.17
2018-12-04T04:29:31.340Z,5.77
2018-12-04T04:31:58.705Z,6.13
2018-12-04T04:34:26.128Z,3.03
2018-12-04T04:36:53.537Z,3.17
2018-12-04T04:39:20.940Z,2.57
2018-12-04T04:41:48.335Z,4.00
2018-12-04T04:44:15.735Z,2.23
2018-12-04T04:46:43.139Z,2.50
2018-12-04T04:49:10.529Z,4.97
2018-12-04T04:51:37.941Z,2.67
2018-12-04T04:54:05.353Z,3.07
2018-12-04T04:56:32.771Z,3.60
2018-12-04T04:59:00.151Z,5.03
2018-12-04T05:01:27.673Z,5.17
2018-12-04T05:03:55.097Z,1.80
2018-12-04T05:06:22.506Z,5.33
2018-12-04T05:08:49.884Z,3.87
2018-12-04T05:11:17.309Z,3.03
2018-12-04T05:13:44.716Z,2.50
2018-12-04T05:16:12.124Z,3.10
2018-12-04T05:18:39.526Z,2.40
2018-12-04T05:21:06.939Z,2.37
2018-12-04T05:23:34.329Z,2.10
2018-12-04T05:26:01.767Z,4.40
2018-12-04T05:28:29.185Z,3.33
2018-12-04T05:30:56.725Z,3.60
2018-12-04T05:33:24.104Z,6.47
2018-12-04T05:35:51.525Z,2.17
2018-12-04T05:38:18.976Z,4.40
2018-12-04T05:40:46.377Z,3.13
2018-12-04T05:43:13.762Z,3.67
2018-12-04T05:45:41.165Z,1.70
2018-12-04T05:48:08.553Z,3.40
2018-12-04T05:50:35.951Z,4.90
2018-12-04T05:53:14.819Z,2.80
2018-12-04T05:55:42.236Z,3.70
2018-12-04T05:58:09.619Z,4.87
2018-12-04T06:00:37.171Z,7.03
2018-12-04T06:03:04.565Z,4.00
2018-12-04T06:05:31.985Z,8.17
2018-12-04T06:07:59.400Z,8.03
2018-12-04T06:10:26.812Z,26.00
2018-12-04T06:12:54.204Z,17.83
2018-12-04T06:15:21.610Z,15.70
2018-12-04T06:17:49.033Z,11.63
2018-12-04T06:20:16.668Z,9.30
2018-12-04T06:22:44.125Z,10.70
2018-12-04T06:25:11.529Z,6.47
2018-12-04T06:27:38.959Z,8.43
2018-12-04T06:30:07.101Z,6.97
2018-12-04T06:32:34.525Z,3.87
2018-12-04T06:35:02.359Z,5.37
2018-12-04T06:37:29.788Z,6.37
2018-12-04T06:39:57.299Z,4.23
2018-12-04T06:42:24.703Z,9.47
2018-12-04T06:44:52.109Z,7.40
2018-12-04T06:47:19.533Z,4.23
2018-12-04T06:49:46.924Z,8.83
2018-12-04T06:52:14.472Z,11.23
2018-12-04T06:54:41.871Z,7.77
2018-12-04T06:57:09.292Z,7.03
2018-12-04T06:59:36.684Z,6.97
2018-12-04T07:02:04.108Z,7.83
2018-12-04T07:04:31.506Z,5.93
2018-12-04T07:06:58.915Z,5.73
2018-12-04T07:09:26.448Z,4.77
2018-12-04T07:11:53.866Z,6.17
2018-12-04T07:14:21.241Z,7.70
2018-12-04T07:16:48.644Z,4.07
2018-12-04T07:19:16.033Z,5.70
2018-12-04T07:21:43.428Z,6.73
2018-12-04T07:24:10.842Z,9.83
2018-12-04T07:26:38.431Z,6.03
2018-12-04T07:29:05.825Z,5.40
2018-12-04T07:31:33.223Z,6.13
2018-12-04T07:34:00.716Z,6.37
2018-12-04T07:36:28.121Z,4.20
2018-12-04T07:38:55.491Z,6.73
2018-12-04T07:41:22.932Z,6.57
2018-12-04T07:43:50.300Z,8.20
2018-12-04T07:46:17.746Z,8.33
2018-12-04T07:48:45.140Z,6.90
2018-12-04T07:51:12.567Z,6.63
2018-12-04T07:53:39.975Z,7.13
2018-12-04T07:56:07.367Z,5.60
2018-12-04T07:58:34.858Z,6.10
2018-12-04T08:01:02.276Z,8.87
2018-12-04T08:03:29.681Z,3.90
2018-12-04T08:05:57.085Z,5.10
2018-12-04T08:08:24.488Z,5.70
2018-12-04T08:10:51.893Z,6.97
2018-12-04T08:13:19.316Z,4.27
2018-12-04T08:15:46.825Z,4.70
2018-12-04T08:18:14.234Z,5.57
2018-12-04T08:20:41.617Z,6.67
2018-12-04T08:23:09.037Z,6.50
2018-12-04T08:25:36.446Z,7.27
2018-12-04T08:28:03.937Z,7.80
2018-12-04T08:30:31.440Z,7.90
2018-12-04T08:32:58.841Z,8.47
2018-12-04T08:35:26.372Z,5.17
2018-12-04T08:37:53.914Z,5.63
2018-12-04T08:40:21.292Z,8.50
2018-12-04T08:42:48.690Z,4.60
2018-12-04T08:45:16.075Z,5.83
2018-12-04T08:47:43.481Z,6.37
2018-12-04T08:50:10.876Z,5.10
2018-12-04T08:52:38.302Z,5.57
2018-12-04T08:55:06.117Z,8.13
2018-12-04T08:57:33.518Z,7.27
2018-12-04T09:00:00.933Z,6.60
2018-12-04T09:02:28.356Z,7.70
2018-12-04T09:04:55.736Z,7.93
2018-12-04T09:07:23.144Z,7.27
2018-12-04T09:09:50.526Z,6.57
2018-12-04T09:12:17.924Z,6.63
2018-12-04T09:14:45.310Z,7.27
2018-12-04T09:17:12.708Z,4.97
2018-12-04T09:19:40.078Z,6.23
2018-12-04T09:22:07.492Z,5.57
2018-12-04T09:24:35.837Z,3.87
2018-12-04T09:27:05.595Z,3.87
2018-12-04T09:29:33.107Z,4.00
2018-12-04T09:32:00.929Z,3.40
2018-12-04T09:34:29.916Z,3.17
2018-12-04T09:36:57.524Z,3.20
2018-12-04T09:39:24.930Z,3.27
2018-12-04T09:41:52.303Z,2.47
2018-12-04T09:44:19.692Z,2.67
2018-12-04T09:46:47.067Z,4.17
2018-12-04T09:49:14.475Z,2.80
2018-12-04T09:51:41.909Z,5.93
2018-12-04T09:54:09.308Z,3.70
2018-12-04T09:56:36.696Z,4.83
2018-12-04T09:59:04.221Z,3.90
2018-12-04T10:01:31.700Z,3.77
2018-12-04T10:03:59.111Z,3.20
2018-12-04T10:06:26.487Z,3.87
2018-12-04T10:08:53.893Z,2.80
2018-12-04T10:11:21.279Z,3.77
2018-12-04T10:13:48.781Z,4.80
2018-12-04T10:16:16.181Z,2.73
2018-12-04T10:18:47.681Z,2.67
2018-12-04T10:21:13.023Z,4.03
2018-12-04T10:23:40.436Z,2.27
2018-12-04T10:26:07.841Z,5.10
2018-12-04T10:28:35.280Z,3.50
2018-12-04T10:31:08.829Z,4.70
2018-12-04T10:33:36.680Z,5.13
2018-12-04T10:36:04.320Z,3.67
2018-12-04T10:38:31.732Z,2.77
2018-12-04T10:40:59.139Z,3.03
2018-12-04T10:43:26.569Z,3.00
2018-12-04T10:45:53.979Z,3.27
2018-12-04T10:48:21.413Z,4.47
2018-12-04T10:50:48.829Z,2.70
2018-12-04T10:53:16.235Z,3.13
2018-12-04T10:55:43.656Z,1.83
2018-12-04T10:58:11.092Z,2.33
2018-12-04T11:00:44.365Z,3.13
2018-12-04T11:03:12.572Z,3.77
2018-12-04T11:05:41.200Z,3.50
2018-12-04T11:08:08.694Z,2.67
2018-12-04T11:10:36.116Z,3.17
2018-12-04T11:13:03.528Z,2.63
2018-12-04T11:15:30.937Z,1.80
2018-12-04T11:17:58.316Z,4.77
2018-12-04T11:20:25.723Z,2.67
2018-12-04T11:22:53.104Z,1.80
2018-12-04T11:25:20.563Z,3.17
2018-12-04T11:27:47.949Z,3.17
2018-12-04T11:30:15.463Z,2.10
2018-12-04T11:32:42.854Z,1.40
2018-12-04T11:35:10.263Z,2.60
2018-12-04T11:37:37.641Z,3.27
2018-12-04T11:40:05.240Z,2.30
2018-12-04T11:42:32.615Z,2.73
2018-12-04T11:45:00.137Z,2.00
2018-12-04T11:47:27.892Z,2.53
2018-12-04T11:49:55.307Z,3.73
2018-12-04T11:52:22.692Z,3.07
2018-12-04T11:54:50.214Z,2.67
2018-12-04T11:57:17.625Z,1.60
2018-12-04T11:59:45.032Z,4.80
2018-12-04T12:02:12.647Z,2.00
2018-12-04T12:04:40.031Z,2.53
2018-12-04T12:07:07.423Z,2.10
2018-12-04T12:09:34.885Z,3.20
2018-12-04T12:12:02.257Z,2.03
2018-12-04T12:14:29.652Z,4.43
2018-12-04T12:16:57.034Z,4.17
2018-12-04T12:19:24.437Z,2.20
2018-12-04T12:21:51.819Z,4.37
2018-12-04T12:24:19.217Z,2.87
2018-12-04T12:26:46.722Z,4.80
2018-12-04T12:29:14.119Z,5.43
2018-12-04T12:31:41.532Z,4.20
2018-12-04T12:34:09.037Z,3.50
2018-12-04T12:36:36.560Z,2.83
2018-12-04T12:39:06.565Z,2.43
2018-12-04T12:41:33.961Z,3.97
2018-12-04T12:44:01.389Z,4.40
2018-12-04T12:46:28.785Z,3.90
2018-12-04T12:48:56.164Z,3.70
2018-12-04T12:51:23.585Z,4.67
2018-12-04T12:53:50.951Z,16.47
2018-12-04T12:56:18.355Z,6.40
2018-12-04T12:58:45.723Z,9.13
2018-12-04T13:01:13.141Z,5.97
2018-12-04T13:03:40.533Z,4.37
2018-12-04T13:06:08.115Z,3.07
2018-12-04T13:08:35.608Z,6.57
2018-12-04T13:11:03.159Z,4.63
2018-12-04T13:13:30.532Z,5.87
2018-12-04T13:15:57.945Z,5.20
2018-12-04T13:18:25.676Z,5.07
2018-12-04T13:20:53.088Z,4.73
2018-12-04T13:23:20.484Z,5.77
2018-12-04T13:25:47.878Z,2.93
2018-12-04T13:28:15.425Z,3.43
2018-12-04T13:30:42.964Z,3.87
2018-12-04T13:33:10.387Z,5.07
2018-12-04T13:35:37.796Z,4.07
2018-12-04T13:38:05.322Z,6.30
2018-12-04T13:40:32.737Z,7.23
2018-12-04T13:43:00.119Z,6.53
2018-12-04T13:45:27.660Z,5.53
2018-12-04T13:47:55.145Z,5.90
2018-12-04T13:50:22.544Z,5.83
2018-12-04T13:52:49.953Z,4.37
2018-12-04T13:55:17.371Z,4.80
2018-12-04T13:57:50.526Z,4.50
2018-12-04T14:00:14.320Z,40.17
2018-12-04T14:02:41.732Z,4.93
2018-12-04T14:05:09.346Z,2.57
2018-12-04T14:07:36.900Z,1.93
2018-12-04T14:10:06.466Z,1.80
2018-12-04T14:12:34.033Z,2.27
2018-12-04T14:15:01.433Z,2.67
2018-12-04T14:17:28.860Z,3.53
2018-12-04T14:19:56.384Z,3.70
2018-12-04T14:22:23.918Z,3.20
2018-12-04T14:24:51.493Z,3.47
2018-12-04T14:27:19.052Z,2.37
2018-12-04T14:29:46.471Z,5.00
2018-12-04T14:32:14.011Z,6.10
2018-12-04T14:34:41.543Z,5.63
2018-12-04T14:37:09.088Z,6.10
2018-12-04T14:39:36.589Z,4.83
2018-12-04T14:42:04.127Z,8.50
2018-12-04T14:44:31.612Z,3.60
2018-12-04T14:46:59.034Z,5.97
2018-12-04T14:49:26.561Z,5.37
2018-12-04T14:51:53.984Z,5.30
2018-12-04T14:54:21.394Z,7.07
2018-12-04T14:56:48.917Z,6.73
2018-12-04T14:59:16.339Z,9.63
2018-12-04T15:01:43.855Z,10.57
2018-12-04T15:04:11.375Z,6.70
2018-12-04T15:06:38.804Z,8.83
2018-12-04T15:09:06.588Z,10.20
2018-12-04T15:11:34.113Z,10.47
2018-12-04T15:14:01.646Z,8.90
2018-12-04T15:16:29.144Z,7.07
2018-12-04T15:18:56.553Z,6.60
2018-12-04T15:21:24.014Z,7.77
2018-12-04T15:23:51.428Z,10.57
2018-12-04T15:26:18.965Z,11.73
2018-12-04T15:28:46.454Z,25.50
2018-12-04T15:31:20.577Z,18.57
2018-12-04T15:33:48.125Z,18.13
2018-12-04T15:36:15.616Z,14.47
2018-12-04T15:38:43.041Z,10.13
2018-12-04T15:41:10.480Z,10.17
2018-12-04T15:43:38.059Z,10.13
2018-12-04T15:46:05.566Z,10.50
2018-12-04T15:48:33.087Z,9.87
2018-12-04T15:51:00.733Z,9.73
2018-12-04T15:53:28.257Z,8.50
2018-12-04T15:55:55.720Z,8.13
2018-12-04T15:58:23.141Z,8.33
2018-12-04T16:00:50.521Z,9.13
2018-12-04T16:03:17.940Z,8.07
2018-12-04T16:05:45.332Z,11.30
2018-12-04T16:08:12.737Z,12.17
2018-12-04T16:10:40.169Z,10.80
2018-12-04T16:13:07.576Z,11.30
2018-12-04T16:15:34.970Z,13.80
2018-12-04T16:18:02.388Z,14.30
2018-12-04T16:20:29.785Z,14.27
2018-12-04T16:22:57.187Z,14.57
2018-12-04T16:25:24.630Z,13.63
2018-12-04T16:27:52.039Z,11.53
2018-12-04T16:30:19.556Z,9.47
2018-12-04T16:32:46.965Z,14.00
2018-12-04T16:35:14.348Z,10.70
2018-12-04T16:37:41.973Z,15.13
2018-12-04T16:40:09.626Z,12.50
2018-12-04T16:42:37.016Z,15.40
2018-12-04T16:45:06.794Z,16.00
2018-12-04T16:47:34.220Z,11.87
2018-12-04T16:50:01.724Z,9.80
2018-12-04T16:52:29.260Z,11.37
2018-12-04T16:54:56.636Z,13.57
2018-12-04T16:57:24.097Z,19.20
2018-12-04T16:59:51.487Z,16.50
2018-12-04T17:02:18.920Z,21.00
2018-12-04T17:04:46.313Z,21.37
2018-12-04T17:07:13.858Z,17.87
2018-12-04T17:09:41.481Z,18.77
2018-12-04T17:12:08.891Z,16.33
2018-12-04T17:14:36.274Z,21.47
2018-12-04T17:17:04.716Z,22.40
2018-12-04T17:19:32.717Z,18.87
2018-12-04T17:22:00.201Z,14.73
2018-12-04T17:24:27.579Z,12.03
2018-12-04T17:26:55.403Z,10.20
2018-12-04T17:29:22.836Z,12.10
2018-12-04T17:31:50.272Z,13.33
2018-12-04T17:34:17.852Z,13.03
2018-12-04T17:36:45.243Z,14.07
2018-12-04T17:39:12.759Z,12.87
2018-12-04T17:41:40.154Z,12.23
2018-12-04T17:44:07.561Z,15.00
2018-12-04T17:46:34.948Z,14.77
2018-12-04T17:49:02.481Z,15.77
2018-12-04T17:51:29.909Z,12.83
2018-12-04T17:53:58.412Z,14.97
2018-12-04T17:56:25.921Z,12.77
2018-12-04T17:58:53.399Z,16.67
2018-12-04T18:01:20.855Z,19.57
2018-12-04T18:03:48.344Z,11.70
2018-12-04T18:06:15.816Z,15.97
2018-12-04T18:08:43.310Z,15.73
2018-12-04T18:11:10.844Z,19.47
2018-12-04T18:13:38.327Z,18.63
2018-12-04T18:16:05.728Z,18.17
2018-12-04T18:18:33.492Z,14.93
2018-12-04T18:21:00.869Z,13.20
2018-12-04T18:23:28.280Z,12.77
2018-12-04T18:25:55.663Z,13.87
2018-12-04T18:28:23.092Z,13.37
2018-12-04T18:30:50.521Z,20.40
2018-12-04T18:33:18.067Z,16.40
2018-12-04T18:35:45.606Z,17.50
2018-12-04T18:38:13.028Z,18.00
2018-12-04T18:40:40.429Z,17.07
2018-12-04T18:43:07.900Z,16.77
2018-12-04T18:45:35.304Z,19.23
2018-12-04T18:48:02.976Z,22.80
2018-12-04T18:50:30.526Z,24.23
2018-12-04T18:52:58.613Z,28.17
2018-12-04T18:55:26.226Z,17.37
2018-12-04T18:57:53.875Z,19.77
2018-12-04T19:00:21.389Z,28.33
2018-12-04T19:02:49.026Z,16.20
2018-12-04T19:05:16.535Z,16.33
2018-12-04T19:07:43.993Z,17.27
2018-12-04T19:10:11.420Z,14.43
2018-12-04T19:12:39.107Z,13.70
2018-12-04T19:15:07.514Z,19.77
2018-12-04T19:17:35.090Z,12.50
2018-12-04T19:20:03.450Z,10.53
2018-12-04T19:22:30.973Z,16.27
2018-12-04T19:24:58.394Z,13.53
2018-12-04T19:27:25.828Z,19.77
2018-12-04T19:29:53.244Z,18.27
2018-12-04T19:32:20.780Z,21.00
2018-12-04T19:34:48.343Z,19.30
2018-12-04T19:37:15.912Z,17.13
2018-12-04T19:39:43.371Z,12.70
2018-12-04T19:42:10.801Z,14.60
2018-12-04T19:44:38.301Z,13.60
2018-12-04T19:47:05.709Z,17.37
2018-12-04T19:49:33.149Z,17.27
2018-12-04T19:52:00.534Z,19.17
2018-12-04T19:54:27.949Z,22.73
2018-12-04T19:56:55.408Z,24.07
2018-12-04T19:59:22.894Z,18.93
2018-12-04T20:01:50.317Z,18.47
2018-12-04T20:04:18.393Z,17.10
2018-12-04T20:06:45.994Z,14.80
2018-12-04T20:09:13.478Z,18.50
2018-12-04T20:11:40.875Z,21.50
2018-12-04T20:14:08.349Z,22.13
2018-12-04T20:16:36.220Z,24.47
2018-12-04T20:19:03.765Z,18.03
2018-12-04T20:21:31.475Z,16.83
2018-12-04T20:23:58.926Z,19.77
2018-12-04T20:26:26.300Z,16.47
2018-12-04T20:28:53.693Z,19.50
2018-12-04T20:31:21.076Z,19.70
2018-12-04T20:33:48.624Z,16.57
2018-12-04T20:36:16.009Z,16.10
2018-12-04T20:38:43.481Z,20.10
2018-12-04T20:41:10.873Z,16.03
2018-12-04T20:43:38.303Z,13.37
2018-12-04T20:46:06.044Z,14.97
2018-12-04T20:48:33.831Z,15.00
2018-12-04T20:51:01.235Z,9.77
2018-12-04T20:53:28.645Z,10.00
2018-12-04T20:55:56.020Z,8.53
2018-12-04T20:58:23.577Z,10.60
2018-12-04T21:00:50.978Z,12.07
2018-12-04T21:03:18.426Z,8.40
2018-12-04T21:05:45.817Z,9.10
2018-12-04T21:08:13.220Z,10.33
2018-12-04T21:10:40.712Z,16.13
2018-12-04T21:13:14.335Z,18.47
2018-12-04T21:15:37.736Z,18.00
2018-12-04T21:18:05.153Z,16.20
2018-12-04T21:20:32.541Z,13.93
2018-12-04T21:22:59.929Z,15.20
2018-12-04T21:25:27.345Z,16.30
2018-12-04T21:28:31.919Z,16.43
2018-12-04T21:31:05.048Z,14.03
2018-12-04T21:33:38.352Z,14.00
2018-12-04T21:36:11.497Z,13.27
2018-12-04T21:38:44.776Z,15.07
2018-12-04T21:41:17.963Z,16.80
2018-12-04T21:43:51.204Z,19.80
2018-12-04T21:46:24.416Z,19.50
2018-12-04T21:48:51.829Z,20.77
2018-12-04T21:51:19.212Z,20.57
2018-12-04T21:53:46.640Z,19.50
2018-12-04T21:56:14.048Z,19.13
2018-12-04T21:58:42.195Z,15.03
2018-12-04T22:01:11.702Z,16.83
2018-12-04T22:03:39.336Z,15.83
2018-12-04T22:06:06.725Z,18.13
2018-12-04T22:08:36.016Z,13.13
2018-12-04T22:13:53.269Z,24.43
2018-12-04T22:16:20.785Z,20.57
2018-12-04T22:18:48.241Z,23.83
2018-12-04T22:21:15.688Z,15.67
2018-12-04T22:23:43.202Z,15.57
2018-12-04T22:26:10.723Z,13.33
2018-12-04T22:28:38.325Z,13.20
2018-12-04T22:31:05.811Z,11.70
2018-12-04T22:33:33.448Z,15.00
2018-12-04T22:36:00.944Z,14.47
2018-12-04T22:38:28.409Z,15.23
2018-12-04T22:40:55.882Z,15.80
2018-12-04T22:43:23.304Z,14.63
2018-12-04T22:45:50.789Z,14.93
2018-12-04T22:48:18.248Z,15.13
2018-12-04T22:50:45.927Z,17.70
2018-12-04T22:53:13.634Z,15.33
2018-12-04T22:55:41.439Z,13.00
2018-12-04T22:58:11.298Z,17.90
2018-12-04T23:00:43.382Z,14.77
2018-12-04T23:03:12.641Z,15.07
2018-12-04T23:05:40.212Z,14.30
2018-12-04T23:08:07.791Z,12.23
2018-12-04T23:10:37.423Z,12.83
2018-12-04T23:13:06.737Z,13.97
2018-12-04T23:15:34.344Z,17.37
2018-12-04T23:18:02.005Z,16.03
2018-12-04T23:20:29.477Z,15.77
2018-12-04T23:23:00.380Z,16.77
2018-12-04T23:25:31.819Z,16.80
2018-12-04T23:27:59.279Z,15.43
2018-12-04T23:30:26.817Z,16.63
2018-12-04T23:32:55.511Z,20.30
2018-12-04T23:35:24.670Z,14.57
2018-12-04T23:37:56.025Z,20.07
2018-12-04T23:40:26.588Z,20.90
2018-12-04T23:42:56.836Z,16.03
2018-12-04T23:45:24.425Z,17.40
2018-12-04T23:47:51.881Z,16.87
2018-12-04T23:50:19.377Z,16.23
2018-12-04T23:52:46.828Z,14.23
2018-12-04T23:55:14.298Z,15.40
2018-12-04T23:57:41.761Z,14.63
